Sanshun Maru — JD2266 — position and weather

sailwx.info

Track history (hours):
 
Tides and Currents Weather Stations Pressure Air Temp Water Temp Dewpoint Dewpoint Depression Visibility Wind Speed Wind Dir Waves Ship Positions

Sanshun Maru

Last reported at 2017-Nov-19 23:37 UTC. Time now 2017-Nov-20 02:09 UTC.
Position N 35°31' E 140°00'.

Length 64 m; draft 4.4 m.

Type: Tanker. MMSI: 431101145.

Date/timePositionNaut miles runAvg speedWind from/ knotsBaromVisibWave heightAir tempDewpointWater temp
2017-Nov-19 23:37N 35°31' E 140°00'111.8
2017-Nov-19 23:29N 35°32' E 140°01'7 0.2
2017-Nov-18 05:39N 35°31' E 139°53'213.5
2017-Nov-18 05:31N 35°30' E 139°51'5 9.4
2017-Nov-18 05:01N 35°32' E 139°45'0 0.0
2017-Nov-18 03:08N 35°32' E 139°45'0 0.0
2017-Nov-18 02:47N 35°32' E 139°45'0 0.0
2017-Nov-18 02:30N 35°32' E 139°45'0 0.0
2017-Nov-18 02:01N 35°32' E 139°45'0 0.0
2017-Nov-18 01:31N 35°32' E 139°45'0 0.0
2017-Nov-18 00:51N 35°32' E 139°45'0 0.0
2017-Nov-18 00:29N 35°32' E 139°45'0 0.0
2017-Nov-18 00:00N 35°32' E 139°45'0 0.0
2017-Nov-17 23:31N 35°32' E 139°45'2 4.1
2017-Nov-17 22:59N 35°30' E 139°47'2 3.8
2017-Nov-17 22:25N 35°30' E 139°50'0 0.0
2017-Nov-17 21:53N 35°30' E 139°50'0 0.0
2017-Nov-17 21:30N 35°30' E 139°50'0 0.0
2017-Nov-17 21:00N 35°30' E 139°50'0 0.0
2017-Nov-17 20:30N 35°30' E 139°50'0 0.0
2017-Nov-17 20:00N 35°30' E 139°50'0 0.0
2017-Nov-17 19:30N 35°30' E 139°50'0 0.0
2017-Nov-17 19:00N 35°30' E 139°50'1 2.7
2017-Nov-17 18:31N 35°29' E 139°49'611.7
2017-Nov-17 18:00N 35°23' E 139°46'611.0
2017-Nov-17 17:30N 35°18' E 139°45'611.5
2017-Nov-17 17:01N 35°13' E 139°47'611.3
2017-Nov-17 16:30N 35°07' E 139°45'510.7
2017-Nov-17 16:00N 35°03' E 139°41'611.1
2017-Nov-17 15:29N 34°60' E 139°35'611.6
2017-Nov-17 14:58N 34°56' E 139°29'  
2017-Nov-14 10:44N 34°50' E 139°09'311.5
2017-Nov-14 10:29N 34°52' E 139°11'2211.6
2017-Nov-14 08:37N 35°03' E 139°34'211.3
2017-Nov-14 08:28N 35°04' E 139°36'611.8
2017-Nov-14 08:00N 35°07' E 139°42'612.2
2017-Nov-14 07:30N 35°12' E 139°46'612.0
2017-Nov-14 07:00N 35°18' E 139°44'611.5
2017-Nov-14 06:30N 35°24' E 139°43'611.9
2017-Nov-14 06:00N 35°28' E 139°48'611.8
2017-Nov-14 05:30N 35°30' E 139°55'2 0.0
2017-Nov-12 02:26N 35°29' E 139°55'2 0.5
2017-Nov-11 22:16N 35°28' E 139°58'310.0
2017-Nov-11 22:00N 35°29' E 139°55'0 0.0
2017-Nov-11 15:22N 35°29' E 139°55'3 7.4
2017-Nov-11 15:00N 35°28' E 139°51'510.8
2017-Nov-11 14:30N 35°25' E 139°47'510.7
2017-Nov-11 14:00N 35°20' E 139°44'510.2
2017-Nov-11 13:30N 35°15' E 139°47'510.8
2017-Nov-11 13:00N 35°10' E 139°46'510.4
2017-Nov-11 12:30N 35°05' E 139°43'510.5
2017-Nov-11 12:00N 35°02' E 139°38'510.3
2017-Nov-11 11:30N 34°59' E 139°33'  
Track history (hours):
 
Tides and Currents Weather Stations Pressure Air Temp Water Temp Dewpoint Dewpoint Depression Visibility Wind Speed Wind Dir Waves Ship Positions

Sanshun Maru

Last reported at 2017-Nov-19 23:37 UTC. Time now 2017-Nov-20 02:09 UTC.
Position N 35°31' E 140°00'.

Length 64 m; draft 4.4 m.

Type: Tanker. MMSI: 431101145.

Date/timePositionNaut miles runAvg speedWind from/ knotsBaromVisibWave heightAir tempDewpointWater temp
2017-Nov-19 23:37N 35°31' E 140°00'111.8
2017-Nov-19 23:29N 35°32' E 140°01'7 0.2
2017-Nov-18 05:39N 35°31' E 139°53'213.5
2017-Nov-18 05:31N 35°30' E 139°51'5 9.4
2017-Nov-18 05:01N 35°32' E 139°45'0 0.0
2017-Nov-18 03:08N 35°32' E 139°45'0 0.0
2017-Nov-18 02:47N 35°32' E 139°45'0 0.0
2017-Nov-18 02:30N 35°32' E 139°45'0 0.0
2017-Nov-18 02:01N 35°32' E 139°45'0 0.0
2017-Nov-18 01:31N 35°32' E 139°45'0 0.0
2017-Nov-18 00:51N 35°32' E 139°45'0 0.0
2017-Nov-18 00:29N 35°32' E 139°45'0 0.0
2017-Nov-18 00:00N 35°32' E 139°45'0 0.0
2017-Nov-17 23:31N 35°32' E 139°45'2 4.1
2017-Nov-17 22:59N 35°30' E 139°47'2 3.8
2017-Nov-17 22:25N 35°30' E 139°50'0 0.0
2017-Nov-17 21:53N 35°30' E 139°50'0 0.0
2017-Nov-17 21:30N 35°30' E 139°50'0 0.0
2017-Nov-17 21:00N 35°30' E 139°50'0 0.0
2017-Nov-17 20:30N 35°30' E 139°50'0 0.0
2017-Nov-17 20:00N 35°30' E 139°50'0 0.0
2017-Nov-17 19:30N 35°30' E 139°50'0 0.0
2017-Nov-17 19:00N 35°30' E 139°50'1 2.7
2017-Nov-17 18:31N 35°29' E 139°49'611.7
2017-Nov-17 18:00N 35°23' E 139°46'611.0
2017-Nov-17 17:30N 35°18' E 139°45'611.5
2017-Nov-17 17:01N 35°13' E 139°47'611.3
2017-Nov-17 16:30N 35°07' E 139°45'510.7
2017-Nov-17 16:00N 35°03' E 139°41'611.1
2017-Nov-17 15:29N 34°60' E 139°35'611.6
2017-Nov-17 14:58N 34°56' E 139°29'  
2017-Nov-14 10:44N 34°50' E 139°09'311.5
2017-Nov-14 10:29N 34°52' E 139°11'2211.6
2017-Nov-14 08:37N 35°03' E 139°34'211.3
2017-Nov-14 08:28N 35°04' E 139°36'611.8
2017-Nov-14 08:00N 35°07' E 139°42'612.2
2017-Nov-14 07:30N 35°12' E 139°46'612.0
2017-Nov-14 07:00N 35°18' E 139°44'611.5
2017-Nov-14 06:30N 35°24' E 139°43'611.9
2017-Nov-14 06:00N 35°28' E 139°48'611.8
2017-Nov-14 05:30N 35°30' E 139°55'2 0.0
2017-Nov-12 02:26N 35°29' E 139°55'2 0.5
2017-Nov-11 22:16N 35°28' E 139°58'310.0
2017-Nov-11 22:00N 35°29' E 139°55'0 0.0
2017-Nov-11 15:22N 35°29' E 139°55'3 7.4
2017-Nov-11 15:00N 35°28' E 139°51'510.8
2017-Nov-11 14:30N 35°25' E 139°47'510.7
2017-Nov-11 14:00N 35°20' E 139°44'510.2
2017-Nov-11 13:30N 35°15' E 139°47'510.8
2017-Nov-11 13:00N 35°10' E 139°46'510.4
2017-Nov-11 12:30N 35°05' E 139°43'510.5
2017-Nov-11 12:00N 35°02' E 139°38'510.3
2017-Nov-11 11:30N 34°59' E 139°33'  

Dump ship's entire track history